Date,TemperatureHighF,TemperatureAvgF,TemperatureLowF,DewpointHighF,DewpointAvgF,DewpointLowF,HumidityHigh,HumidityAvg,HumidityLow,PressureMaxIn,PressureMinIn,WindSpeedMaxMPH,WindSpeedAvgMPH,GustSpeedMaxMPH,PrecipitationSumIn
2014-1-1,72.2,56.1,45.7,28.1,22.1,17.6,34,28,17,30.12,30.00,1,0,3,0.00
2014-1-2,72.6,57.6,48.3,32.6,27.2,23.4,41,32,21,30.11,29.95,2,0,4,0.00
2014-1-3,69.6,56.3,48.7,33.9,29.5,26.6,45,37,24,30.01,29.85,2,0,3,0.00
2014-1-4,65.6,52.5,44.3,31.8,28.7,26.4,52,41,26,30.01,29.89,1,0,5,0.00
2014-1-5,66.5,53.4,44.4,25.2,21.1,14.6,42,30,16,30.17,29.97,3,0,3,0.00
2014-1-6,67.6,51.6,41.1,22.5,16.7,12.2,33,26,16,30.24,30.09,1,0,4,0.00
2014-1-7,64.2,52.5,44.0,26.3,19.7,16.0,34,28,18,30.11,30.01,1,0,1,0.00
2014-1-8,62.5,49.4,40.2,30.5,23.5,17.5,50,37,27,30.09,29.96,2,0,4,0.00
2014-1-9,59.9,45.6,40.2,39.9,28.1,23.5,64,51,33,30.06,29.92,5,0,6,0.00
2014-1-10,72.9,55.9,44.9,34.7,29.0,24.7,49,37,23,30.10,29.98,5,0,6,0.00
2014-1-11,71.4,56.7,46.7,35.6,30.9,27.4,48,38,24,30.14,29.99,3,0,4,0.00
2014-1-12,63.1,51.2,41.7,38.8,33.3,27.4,67,51,33,30.17,29.96,1,0,2,0.00
2014-1-13,67.9,52.9,42.1,24.7,21.4,17.8,45,30,18,30.33,30.17,1,0,3,0.00
2014-1-14,73.6,57.7,46.2,23.1,17.6,13.9,31,22,13,30.34,30.17,2,0,4,0.00
2014-1-15,73.5,58.2,46.6,28.6,21.3,15.2,30,24,16,30.27,30.11,3,0,4,0.00
2014-1-16,75.1,59.6,50.0,24.2,18.0,13.8,29,21,12,30.15,30.00,1,0,4,0.00
2014-1-17,74.1,59.1,48.6,25.2,18.2,14.3,26,21,13,30.14,30.00,2,0,4,0.00
2014-1-18,75.3,60.1,50.4,23.8,17.7,13.8,25,20,12,30.08,29.95,1,0,3,0.00
2014-1-19,74.8,58.9,49.5,27.5,19.8,16.1,28,22,14,30.10,29.99,5,0,6,0.00
2014-1-20,74.2,58.7,47.3,25.0,19.9,15.8,30,23,14,30.15,30.02,4,0,5,0.00
2014-1-21,71.4,59.0,50.9,28.3,21.1,17.4,29,23,15,30.16,30.03,3,0,4,0.00
2014-1-22,71.8,58.9,46.7,27.9,21.6,15.9,42,24,16,30.00,29.81,1,0,5,0.00
2014-1-23,70.5,56.0,43.8,24.3,18.7,12.9,35,24,16,30.02,29.81,5,0,10,0.00
2014-1-24,66.0,56.9,50.2,26.0,20.9,15.6,30,25,18,30.19,30.04,2,0,3,0.00
2014-1-25,68.0,58.5,49.7,33.6,29.5,24.7,51,34,25,30.18,30.03,4,0,5,0.00
2014-1-26,63.0,52.3,43.3,38.1,34.5,31.6,64,52,35,30.12,29.97,3,0,4,0.00
2014-1-27,62.8,51.7,42.2,43.9,39.7,34.8,75,65,47,30.06,29.95,2,0,4,0.00
2014-1-28,71.7,56.5,43.7,37.3,31.6,24.5,65,41,26,30.10,29.97,3,0,4,0.00
2014-1-29,74.2,60.1,50.7,34.3,29.5,25.2,46,32,20,30.05,29.88,4,0,5,0.00
2014-1-30,60.3,52.2,46.3,47.5,36.6,25.8,89,57,38,29.90,29.80,3,0,4,0.00
2014-1-31,52.0,47.4,42.2,47.2,43.8,37.0,94,87,69,29.92,29.79,4,1,7,0.15